Time;durP1;ratioP1;P1;durP2;ratioP2;P2;SDS_P1;SDS_P2;PMS_P1;PMS_P2;Temp;Humidity;BMP_temperature;BMP_pressure;BME280_temperature;BME280_humidity;BME280_pressure;Samples;Min_cycle;Max_cycle;Signal;HPM_P1;HPM_P2
2022/12/24 00:00:55;;;;;;;;;;;10.50;99.90;;;;;;5044850;28;19960;-69
2022/12/24 00:03:23;;;;;;;;;;;10.50;99.90;;;;;;5046973;28;20116;-69
2022/12/24 00:05:50;;;;;;;;;;;10.50;99.90;;;;;;5064483;28;19928;-70
2022/12/24 00:08:17;;;;;;;;;;;10.50;99.90;;;;;;5066547;28;19993;-70
2022/12/24 00:10:44;;;;;;;;;;;10.50;99.90;;;;;;5066702;28;20254;-69
2022/12/24 00:13:10;;;;;;;;;;;10.40;99.90;;;;;;5046759;28;19928;-70
2022/12/24 00:15:37;;;;;;;;;;;10.40;99.90;;;;;;5046328;28;19957;-69
2022/12/24 00:18:03;;;;;;;;;;;10.30;99.90;;;;;;5045980;28;19952;-69
2022/12/24 00:20:31;;;;;;;;;;;10.30;99.90;;;;;;5046454;28;19952;-70
2022/12/24 00:22:58;;;;;;;;;;;10.30;99.90;;;;;;5046436;28;20113;-70
2022/12/24 00:25:25;;;;;;;;;;;10.30;99.90;;;;;;5046568;28;19921;-70
2022/12/24 00:27:51;;;;;;;;;;;10.30;99.90;;;;;;5046057;28;19921;-68
2022/12/24 00:30:18;;;;;;;;;;;10.30;99.90;;;;;;5046557;28;19921;-69
2022/12/24 00:32:45;;;;;;;;;;;10.20;99.90;;;;;;5046556;28;19948;-70
2022/12/24 00:35:11;;;;;;;;;;;10.20;99.90;;;;;;5046489;28;19928;-70
2022/12/24 00:37:39;;;;;;;;;;;10.20;99.90;;;;;;5045530;28;20224;-70
2022/12/24 00:40:07;;;;;;;;;;;10.10;99.90;;;;;;5046083;28;19988;-69
2022/12/24 00:42:33;;;;;;;;;;;10.10;99.90;;;;;;5046130;28;19921;-70
2022/12/24 00:45:00;;;;;;;;;;;10.10;99.90;;;;;;5062598;28;19929;-68
2022/12/24 00:47:26;;;;;;;;;;;10.10;99.90;;;;;;5065504;28;19959;-70
2022/12/24 00:49:53;;;;;;;;;;;10.00;99.90;;;;;;5066142;28;20153;-69
2022/12/24 00:52:20;;;;;;;;;;;10.00;99.90;;;;;;5065942;28;19921;-69
2022/12/24 00:54:48;;;;;;;;;;;10.00;99.90;;;;;;5066076;28;19983;-70
2022/12/24 00:57:15;;;;;;;;;;;9.90;99.90;;;;;;5065494;28;20108;-69
2022/12/24 00:59:41;;;;;;;;;;;9.90;99.90;;;;;;5065409;28;19921;-70
2022/12/24 01:02:08;;;;;;;;;;;9.90;99.90;;;;;;5064382;28;19952;-70
2022/12/24 01:07:19;;;;;;;;;;;9.80;99.90;;;;;;5065094;28;19923;-70
2022/12/24 01:09:45;;;;;;;;;;;9.80;99.90;;;;;;5064567;28;19921;-70
2022/12/24 01:12:13;;;;;;;;;;;9.80;99.90;;;;;;5065098;28;20232;-70
2022/12/24 01:14:40;;;;;;;;;;;9.80;99.90;;;;;;5065743;28;19991;-69
2022/12/24 01:17:06;;;;;;;;;;;9.70;99.90;;;;;;5065093;28;19963;-70
2022/12/24 01:19:33;;;;;;;;;;;9.70;99.90;;;;;;5065662;28;19927;-70
2022/12/24 01:22:00;;;;;;;;;;;9.70;99.90;;;;;;5065739;28;19984;-69
2022/12/24 01:24:28;;;;;;;;;;;9.70;99.90;;;;;;5062652;28;19959;-70
2022/12/24 01:26:54;;;;;;;;;;;9.70;99.90;;;;;;5064750;28;19921;-69
2022/12/24 01:29:22;;;;;;;;;;;9.70;99.90;;;;;;5065223;28;19952;-70
2022/12/24 01:31:49;;;;;;;;;;;9.70;99.90;;;;;;5065448;28;19951;-70
2022/12/24 01:34:15;;;;;;;;;;;9.70;99.90;;;;;;5065035;28;19956;-69
2022/12/24 01:36:42;;;;;;;;;;;9.60;99.90;;;;;;5064801;28;19963;-70
2022/12/24 01:39:09;;;;;;;;;;;9.60;99.90;;;;;;5065021;28;20191;-70
2022/12/24 01:44:21;;;;;;;;;;;9.60;99.90;;;;;;5064779;28;19928;-70
2022/12/24 01:46:51;;;;;;;;;;;9.50;99.90;;;;;;5064088;28;19988;-68
2022/12/24 01:49:18;;;;;;;;;;;9.50;99.90;;;;;;5064994;28;19921;-70
2022/12/24 01:51:46;;;;;;;;;;;9.60;99.90;;;;;;5064709;28;19921;-70
2022/12/24 01:54:15;;;;;;;;;;;9.50;99.90;;;;;;5064899;28;19920;-70
2022/12/24 01:56:44;;;;;;;;;;;9.60;99.90;;;;;;5063857;28;19997;-70
2022/12/24 01:59:12;;;;;;;;;;;9.60;99.90;;;;;;5064696;28;19956;-70
2022/12/24 02:01:39;;;;;;;;;;;9.50;99.90;;;;;;5064743;28;19921;-70
2022/12/24 02:04:12;;;;;;;;;;;9.60;99.90;;;;;;5064388;28;19927;-70
2022/12/24 02:06:38;;;;;;;;;;;9.60;99.90;;;;;;5063759;28;19963;-70
2022/12/24 02:09:06;;;;;;;;;;;9.50;99.90;;;;;;5064462;28;19988;-70
2022/12/24 02:11:33;;;;;;;;;;;9.50;99.90;;;;;;5064579;28;19929;-70
2022/12/24 02:14:01;;;;;;;;;;;9.50;99.90;;;;;;5064240;28;19983;-70
2022/12/24 02:16:34;;;;;;;;;;;9.50;99.90;;;;;;5063758;28;19947;-70
2022/12/24 02:19:06;;;;;;;;;;;9.50;99.90;;;;;;5064307;28;19980;-70
2022/12/24 02:21:51;;;;;;;;;;;9.50;99.90;;;;;;5064268;28;19984;-70
2022/12/24 02:24:42;;;;;;;;;;;9.50;99.90;;;;;;5060279;28;20296;-70
2022/12/24 02:27:17;;;;;;;;;;;9.60;99.90;;;;;;5063771;28;19988;-70
2022/12/24 02:29:59;;;;;;;;;;;9.60;99.90;;;;;;5064212;28;19921;-70
2022/12/24 02:32:32;;;;;;;;;;;9.50;99.90;;;;;;5062459;28;19988;-70
2022/12/24 02:35:01;;;;;;;;;;;9.60;99.90;;;;;;5044182;28;19984;-70
2022/12/24 02:37:31;;;;;;;;;;;9.60;99.90;;;;;;5043441;28;19921;-70
2022/12/24 02:40:00;;;;;;;;;;;9.60;99.90;;;;;;5044000;28;20163;-70
2022/12/24 02:42:30;;;;;;;;;;;9.60;99.90;;;;;;5040868;28;19984;-70
2022/12/24 02:44:58;;;;;;;;;;;9.60;99.90;;;;;;5044043;28;19921;-70
2022/12/24 02:47:26;;;;;;;;;;;9.60;99.90;;;;;;5042933;28;19984;-70
2022/12/24 02:49:55;;;;;;;;;;;9.60;99.90;;;;;;5043478;28;20385;-70
2022/12/24 02:52:28;;;;;;;;;;;9.50;99.90;;;;;;5041265;28;19980;-70
2022/12/24 02:54:55;;;;;;;;;;;9.50;99.90;;;;;;5043916;28;19957;-69
2022/12/24 02:57:28;;;;;;;;;;;9.50;99.90;;;;;;5042703;28;19927;-69
2022/12/24 03:00:01;;;;;;;;;;;9.50;99.90;;;;;;5043750;28;19988;-70
2022/12/24 03:02:34;;;;;;;;;;;9.50;99.90;;;;;;5043417;28;19987;-70
2022/12/24 03:05:06;;;;;;;;;;;9.50;99.90;;;;;;5043472;28;19996;-69
2022/12/24 03:07:35;;;;;;;;;;;9.50;99.90;;;;;;5042768;28;19971;-70
2022/12/24 03:10:07;;;;;;;;;;;9.40;99.90;;;;;;5043464;28;19983;-69
2022/12/24 03:12:35;;;;;;;;;;;9.40;99.90;;;;;;5043620;28;20063;-70
2022/12/24 03:15:06;;;;;;;;;;;9.40;99.90;;;;;;5043516;28;19927;-69
2022/12/24 03:17:34;;;;;;;;;;;9.40;99.90;;;;;;5042823;28;19963;-70
2022/12/24 03:20:01;;;;;;;;;;;9.40;99.90;;;;;;5043461;28;19921;-69
2022/12/24 03:22:30;;;;;;;;;;;9.40;99.90;;;;;;5043454;28;20165;-70
2022/12/24 03:24:57;;;;;;;;;;;9.30;99.90;;;;;;5043425;28;20112;-69
2022/12/24 03:27:25;;;;;;;;;;;9.30;99.90;;;;;;5039867;28;20098;-69
2022/12/24 03:29:52;;;;;;;;;;;9.30;99.90;;;;;;5043078;28;19988;-70
2022/12/24 03:32:22;;;;;;;;;;;9.20;99.90;;;;;;5043352;28;19984;-70
2022/12/24 03:34:49;;;;;;;;;;;9.20;99.90;;;;;;5042592;28;20228;-70
2022/12/24 03:37:16;;;;;;;;;;;9.20;99.90;;;;;;5041300;28;19928;-70
2022/12/24 03:39:44;;;;;;;;;;;9.20;99.90;;;;;;5043153;28;19984;-70
2022/12/24 03:42:10;;;;;;;;;;;9.20;99.90;;;;;;5043288;28;19988;-70
2022/12/24 03:44:37;;;;;;;;;;;9.10;99.90;;;;;;5043055;28;19989;-70
2022/12/24 03:47:04;;;;;;;;;;;9.20;99.90;;;;;;5042437;28;20167;-70
2022/12/24 03:49:30;;;;;;;;;;;9.10;99.90;;;;;;5043084;28;19976;-70
2022/12/24 03:51:57;;;;;;;;;;;9.10;99.90;;;;;;5043289;28;20337;-70
2022/12/24 03:54:23;;;;;;;;;;;9.00;99.90;;;;;;5042864;28;20213;-70
2022/12/24 03:56:51;;;;;;;;;;;9.00;99.90;;;;;;5041989;28;19976;-70
2022/12/24 03:59:19;;;;;;;;;;;9.00;99.90;;;;;;5037383;28;20177;-70
2022/12/24 04:01:46;;;;;;;;;;;9.00;99.90;;;;;;5043031;28;19921;-70
2022/12/24 04:04:12;;;;;;;;;;;9.00;99.90;;;;;;5042990;28;19925;-69
2022/12/24 04:06:39;;;;;;;;;;;9.00;99.90;;;;;;5042094;28;19921;-70
2022/12/24 04:09:06;;;;;;;;;;;9.00;99.90;;;;;;5042972;28;20185;-70
2022/12/24 04:11:32;;;;;;;;;;;9.00;99.90;;;;;;5042925;28;19988;-70
2022/12/24 04:14:00;;;;;;;;;;;9.00;99.90;;;;;;5042787;28;19988;-70
2022/12/24 04:16:27;;;;;;;;;;;8.90;99.90;;;;;;5047120;28;19977;-69
2022/12/24 04:18:54;;;;;;;;;;;8.90;99.90;;;;;;5062295;28;20275;-70
2022/12/24 04:21:20;;;;;;;;;;;8.90;99.90;;;;;;5062823;28;19956;-69
2022/12/24 04:23:47;;;;;;;;;;;8.90;99.90;;;;;;5062794;28;19971;-70
2022/12/24 04:26:14;;;;;;;;;;;8.90;99.90;;;;;;5061823;28;20205;-69
2022/12/24 04:28:41;;;;;;;;;;;8.90;99.90;;;;;;5062576;28;20161;-70
2022/12/24 04:31:11;;;;;;;;;;;8.80;99.90;;;;;;5062382;28;20112;-69
2022/12/24 04:33:38;;;;;;;;;;;8.80;99.90;;;;;;5062649;28;19951;-69
2022/12/24 04:36:06;;;;;;;;;;;8.80;99.90;;;;;;5062163;28;19971;-69
2022/12/24 04:38:33;;;;;;;;;;;8.70;99.90;;;;;;5062633;28;19984;-69
2022/12/24 04:41:00;;;;;;;;;;;8.70;99.90;;;;;;5062361;28;19963;-70
2022/12/24 04:43:27;;;;;;;;;;;8.70;99.90;;;;;;5062613;28;20059;-70
2022/12/24 04:45:54;;;;;;;;;;;8.70;99.90;;;;;;5062253;28;20218;-69
2022/12/24 04:48:22;;;;;;;;;;;8.60;99.90;;;;;;5064285;28;19984;-70
2022/12/24 04:50:49;;;;;;;;;;;8.60;99.90;;;;;;5065866;28;19952;-69
2022/12/24 04:53:15;;;;;;;;;;;8.60;99.90;;;;;;5066088;28;19952;-70
2022/12/24 04:55:44;;;;;;;;;;;8.60;99.90;;;;;;5065755;28;19984;-70
2022/12/24 04:58:10;;;;;;;;;;;8.60;99.90;;;;;;5065271;28;20208;-70
2022/12/24 05:00:37;;;;;;;;;;;8.60;99.90;;;;;;5066115;28;19984;-70
2022/12/24 05:03:03;;;;;;;;;;;8.60;99.90;;;;;;5066085;28;19956;-69
2022/12/24 05:05:32;;;;;;;;;;;8.60;99.90;;;;;;5065937;28;19928;-70
2022/12/24 05:07:58;;;;;;;;;;;8.70;99.90;;;;;;5065228;28;19984;-70
2022/12/24 05:10:25;;;;;;;;;;;8.70;99.90;;;;;;5065477;28;19988;-70
2022/12/24 05:12:51;;;;;;;;;;;8.70;99.90;;;;;;5065408;28;20179;-70
2022/12/24 05:15:18;;;;;;;;;;;8.70;99.90;;;;;;5065408;28;19956;-69
2022/12/24 05:17:45;;;;;;;;;;;8.70;99.90;;;;;;5064801;28;19991;-69
2022/12/24 05:20:11;;;;;;;;;;;8.70;99.90;;;;;;5065141;28;20012;-70
2022/12/24 05:28:07;;;;;;;;;;;8.70;99.90;;;;;;5064814;28;19959;-70
2022/12/24 05:30:34;;;;;;;;;;;8.70;99.90;;;;;;5065187;28;19989;-69
2022/12/24 05:33:01;;;;;;;;;;;8.70;99.90;;;;;;5065385;28;19989;-70
2022/12/24 05:35:27;;;;;;;;;;;8.70;99.90;;;;;;5065265;28;19980;-70
2022/12/24 05:37:58;;;;;;;;;;;8.70;99.90;;;;;;5064592;28;19991;-69
2022/12/24 05:40:25;;;;;;;;;;;8.70;99.90;;;;;;5065286;28;19956;-70
2022/12/24 05:42:51;;;;;;;;;;;8.70;99.90;;;;;;5065229;28;19980;-70
2022/12/24 05:45:18;;;;;;;;;;;8.70;99.90;;;;;;5064721;28;20366;-70
2022/12/24 05:47:45;;;;;;;;;;;8.70;99.90;;;;;;5064343;28;19980;-70
2022/12/24 05:50:11;;;;;;;;;;;8.70;99.90;;;;;;5065002;28;19952;-70
2022/12/24 05:52:38;;;;;;;;;;;8.70;99.90;;;;;;5064757;28;19989;-70
2022/12/24 05:55:07;;;;;;;;;;;8.70;99.90;;;;;;5064577;28;19956;-69
2022/12/24 05:57:34;;;;;;;;;;;8.70;99.90;;;;;;5063991;28;20221;-70
2022/12/24 06:00:01;;;;;;;;;;;8.70;99.90;;;;;;5064147;28;19963;-73
2022/12/24 06:02:27;;;;;;;;;;;8.70;99.90;;;;;;5064777;28;19988;-71
2022/12/24 06:04:54;;;;;;;;;;;8.60;99.90;;;;;;5064442;28;19979;-70
2022/12/24 06:07:21;;;;;;;;;;;8.60;99.90;;;;;;5063803;28;19956;-69
2022/12/24 06:09:47;;;;;;;;;;;8.70;99.90;;;;;;5064246;28;20227;-69
2022/12/24 06:12:15;;;;;;;;;;;8.70;99.90;;;;;;5064735;28;20000;-69
2022/12/24 06:14:42;;;;;;;;;;;8.70;99.90;;;;;;5064497;28;19921;-70
2022/12/24 06:17:10;;;;;;;;;;;8.60;99.90;;;;;;5062974;28;20200;-70
2022/12/24 06:19:36;;;;;;;;;;;8.60;99.90;;;;;;5065025;28;19955;-70
2022/12/24 06:22:03;;;;;;;;;;;8.70;99.90;;;;;;5065202;28;19980;-70
2022/12/24 06:24:29;;;;;;;;;;;8.60;99.90;;;;;;5064552;28;19988;-70
2022/12/24 06:26:56;;;;;;;;;;;8.60;99.90;;;;;;5063662;28;19979;-70
2022/12/24 06:29:24;;;;;;;;;;;8.60;99.90;;;;;;5064258;28;20179;-70
2022/12/24 06:31:51;;;;;;;;;;;8.60;99.90;;;;;;5064044;28;19955;-70
2022/12/24 06:34:17;;;;;;;;;;;8.60;99.90;;;;;;5063935;28;19973;-68
2022/12/24 06:36:44;;;;;;;;;;;8.60;99.90;;;;;;5062942;28;20266;-70
2022/12/24 06:39:11;;;;;;;;;;;8.60;99.90;;;;;;5063648;28;19959;-69
2022/12/24 06:41:37;;;;;;;;;;;8.60;99.90;;;;;;5064021;28;19987;-70
2022/12/24 06:44:04;;;;;;;;;;;8.60;99.90;;;;;;5063931;28;19971;-70
2022/12/24 06:46:32;;;;;;;;;;;8.70;99.90;;;;;;5063079;28;19959;-70
2022/12/24 06:48:59;;;;;;;;;;;8.70;99.90;;;;;;5062484;28;19988;-70
2022/12/24 06:51:25;;;;;;;;;;;8.60;99.90;;;;;;5063463;28;20228;-70
2022/12/24 06:53:52;;;;;;;;;;;8.60;99.90;;;;;;5063444;28;19959;-70
2022/12/24 06:56:20;;;;;;;;;;;8.60;99.90;;;;;;5062661;28;20011;-70
2022/12/24 06:58:47;;;;;;;;;;;8.60;99.90;;;;;;5063703;28;19928;-69
2022/12/24 07:01:14;;;;;;;;;;;8.70;99.90;;;;;;5063378;28;19988;-70
2022/12/24 07:03:42;;;;;;;;;;;8.70;99.90;;;;;;5063285;28;19959;-69
2022/12/24 07:06:11;;;;;;;;;;;8.70;99.90;;;;;;5062485;28;19955;-70
2022/12/24 07:08:37;;;;;;;;;;;8.70;99.90;;;;;;5062942;28;20180;-70
2022/12/24 07:11:04;;;;;;;;;;;8.70;99.90;;;;;;5062847;28;19992;-70
2022/12/24 07:13:33;;;;;;;;;;;8.70;99.90;;;;;;5063150;28;19920;-69
2022/12/24 07:16:00;;;;;;;;;;;8.70;99.90;;;;;;5046399;28;19921;-71
2022/12/24 07:18:27;;;;;;;;;;;8.70;99.90;;;;;;5062027;28;19984;-70
2022/12/24 07:20:54;;;;;;;;;;;8.70;99.90;;;;;;5063062;28;19956;-68
2022/12/24 07:23:21;;;;;;;;;;;8.60;99.90;;;;;;5063475;28;19927;-70
2022/12/24 07:25:48;;;;;;;;;;;8.60;99.90;;;;;;5062870;28;19943;-70
2022/12/24 07:28:14;;;;;;;;;;;8.60;99.90;;;;;;5062774;28;20250;-70
2022/12/24 07:30:41;;;;;;;;;;;8.60;99.90;;;;;;5062953;28;19975;-70
2022/12/24 07:33:08;;;;;;;;;;;8.60;99.90;;;;;;5063393;28;20173;-70
2022/12/24 07:35:35;;;;;;;;;;;8.60;99.90;;;;;;5063216;28;19956;-70
2022/12/24 07:38:03;;;;;;;;;;;8.60;99.90;;;;;;5062368;28;19927;-69
2022/12/24 07:40:29;;;;;;;;;;;8.60;99.90;;;;;;5063221;28;19921;-70
2022/12/24 07:42:56;;;;;;;;;;;8.60;99.90;;;;;;5062824;28;20281;-70
2022/12/24 07:45:23;;;;;;;;;;;8.60;99.90;;;;;;5063059;28;19928;-69
2022/12/24 07:47:49;;;;;;;;;;;8.60;99.90;;;;;;5062148;28;20379;-70
2022/12/24 07:50:16;;;;;;;;;;;8.70;99.90;;;;;;5062644;28;19947;-69
2022/12/24 07:52:43;;;;;;;;;;;8.70;99.90;;;;;;5063030;28;19948;-69
2022/12/24 07:55:11;;;;;;;;;;;8.70;99.90;;;;;;5063059;28;19952;-69
2022/12/24 07:57:37;;;;;;;;;;;8.70;99.90;;;;;;5062377;28;19948;-69
2022/12/24 08:00:05;;;;;;;;;;;8.70;99.90;;;;;;5063010;28;19921;-70
2022/12/24 08:02:31;;;;;;;;;;;8.80;99.90;;;;;;5063114;28;19940;-70
2022/12/24 08:04:58;;;;;;;;;;;8.80;99.90;;;;;;5062383;28;20023;-70
2022/12/24 08:07:24;;;;;;;;;;;8.80;99.90;;;;;;5062385;28;19983;-70
2022/12/24 08:09:51;;;;;;;;;;;8.90;99.90;;;;;;5063003;28;19921;-70
2022/12/24 08:12:19;;;;;;;;;;;8.80;99.90;;;;;;5063131;28;19977;-70
2022/12/24 08:14:46;;;;;;;;;;;8.90;99.90;;;;;;5062673;28;19980;-70
2022/12/24 08:17:12;;;;;;;;;;;8.90;99.90;;;;;;5062346;28;19988;-70
2022/12/24 08:19:39;;;;;;;;;;;8.90;99.90;;;;;;5062732;28;20057;-70
2022/12/24 08:22:06;;;;;;;;;;;8.90;99.90;;;;;;5065093;28;19921;-70
2022/12/24 08:24:32;;;;;;;;;;;9.00;99.90;;;;;;5066755;28;20181;-70
2022/12/24 08:26:59;;;;;;;;;;;9.00;99.90;;;;;;5065722;28;19958;-69
2022/12/24 08:29:27;;;;;;;;;;;9.00;99.90;;;;;;5066007;28;19984;-70
2022/12/24 08:31:53;;;;;;;;;;;9.00;99.90;;;;;;5066107;28;19924;-71
2022/12/24 08:34:20;;;;;;;;;;;9.10;99.90;;;;;;5066199;28;20204;-70
2022/12/24 08:36:47;;;;;;;;;;;9.10;99.90;;;;;;5065497;28;19984;-70
2022/12/24 08:39:13;;;;;;;;;;;9.20;99.90;;;;;;5066183;28;19975;-70
2022/12/24 08:41:40;;;;;;;;;;;9.20;99.90;;;;;;5065969;28;19956;-70
2022/12/24 08:44:07;;;;;;;;;;;9.20;99.90;;;;;;5065984;28;19989;-71
2022/12/24 08:46:35;;;;;;;;;;;9.20;99.90;;;;;;5065520;28;19964;-69
2022/12/24 08:49:01;;;;;;;;;;;9.20;99.90;;;;;;5066054;28;19956;-70
2022/12/24 08:51:28;;;;;;;;;;;9.30;99.90;;;;;;5066252;28;19984;-70
2022/12/24 08:53:54;;;;;;;;;;;9.30;99.90;;;;;;5066225;28;19952;-70
2022/12/24 08:56:21;;;;;;;;;;;9.30;99.90;;;;;;5065259;28;20208;-70
2022/12/24 08:58:48;;;;;;;;;;;9.30;99.90;;;;;;5065893;28;19963;-70
2022/12/24 09:01:16;;;;;;;;;;;9.40;99.90;;;;;;5063258;28;19924;-70
2022/12/24 09:03:44;;;;;;;;;;;9.40;99.90;;;;;;5066035;28;19979;-70
2022/12/24 09:06:11;;;;;;;;;;;9.40;99.90;;;;;;5065112;28;19920;-70
2022/12/24 09:08:38;;;;;;;;;;;9.50;99.90;;;;;;5065745;28;19989;-70
2022/12/24 09:11:05;;;;;;;;;;;9.50;99.90;;;;;;5065580;28;19975;-69
2022/12/24 09:13:32;;;;;;;;;;;9.60;99.90;;;;;;5065850;28;19927;-69
2022/12/24 09:15:58;;;;;;;;;;;9.60;99.90;;;;;;5065282;28;19935;-68
2022/12/24 09:18:25;;;;;;;;;;;9.70;99.90;;;;;;5061087;28;19984;-68
2022/12/24 09:20:58;;;;;;;;;;;9.70;99.90;;;;;;5065498;28;19983;-68
2022/12/24 09:23:24;;;;;;;;;;;9.60;99.90;;;;;;5065670;28;19936;-68
2022/12/24 09:25:51;;;;;;;;;;;9.60;99.90;;;;;;5065077;28;20115;-69
2022/12/24 09:28:17;;;;;;;;;;;9.60;99.90;;;;;;5064809;28;19956;-70
2022/12/24 09:30:44;;;;;;;;;;;9.60;99.90;;;;;;5065421;28;19983;-68
2022/12/24 09:33:11;;;;;;;;;;;9.60;99.90;;;;;;5064313;28;19988;-69
2022/12/24 09:35:37;;;;;;;;;;;9.50;99.90;;;;;;5065292;28;19959;-69
2022/12/24 09:38:05;;;;;;;;;;;9.60;99.90;;;;;;5065184;28;19984;-69
2022/12/24 09:40:35;;;;;;;;;;;9.60;99.90;;;;;;5065069;28;19927;-69
2022/12/24 09:43:03;;;;;;;;;;;9.70;99.90;;;;;;5065340;28;19920;-69
2022/12/24 09:45:31;;;;;;;;;;;9.70;99.90;;;;;;5056835;28;20116;-69
2022/12/24 09:47:59;;;;;;;;;;;9.80;99.90;;;;;;5064557;28;19921;-69
2022/12/24 09:50:30;;;;;;;;;;;9.80;99.90;;;;;;5064696;28;19929;-69
2022/12/24 09:52:58;;;;;;;;;;;9.90;99.90;;;;;;5064884;28;19987;-69
2022/12/24 09:55:28;;;;;;;;;;;9.80;99.90;;;;;;5065103;28;19925;-69
2022/12/24 09:57:55;;;;;;;;;;;9.90;99.90;;;;;;5064560;28;19959;-69
2022/12/24 10:00:24;;;;;;;;;;;9.90;99.90;;;;;;5063135;28;19920;-69
2022/12/24 10:02:51;;;;;;;;;;;9.80;99.90;;;;;;5065025;28;20205;-69
2022/12/24 10:05:18;;;;;;;;;;;9.80;99.90;;;;;;5064399;28;19988;-69
2022/12/24 10:07:49;;;;;;;;;;;9.80;99.90;;;;;;5064647;28;19983;-69
2022/12/24 10:10:19;;;;;;;;;;;9.90;99.90;;;;;;5064350;28;19924;-69
2022/12/24 10:12:51;;;;;;;;;;;9.90;99.90;;;;;;5064545;28;19988;-67
2022/12/24 10:15:20;;;;;;;;;;;9.90;99.90;;;;;;5064778;28;19992;-69
2022/12/24 10:17:52;;;;;;;;;;;10.00;99.90;;;;;;5063905;28;19952;-68
2022/12/24 10:20:35;;;;;;;;;;;10.00;99.90;;;;;;5064431;28;20201;-68
2022/12/24 10:23:05;;;;;;;;;;;10.00;99.90;;;;;;5064579;28;19921;-66
2022/12/24 10:25:33;;;;;;;;;;;10.00;99.90;;;;;;5061635;28;19928;-68
2022/12/24 10:28:03;;;;;;;;;;;10.10;99.90;;;;;;5064194;28;20167;-68
2022/12/24 10:30:30;;;;;;;;;;;10.10;99.90;;;;;;5064313;28;19995;-67
2022/12/24 10:32:57;;;;;;;;;;;10.10;99.90;;;;;;5063419;28;19925;-68
2022/12/24 10:35:26;;;;;;;;;;;10.10;99.90;;;;;;5059559;28;19921;-68
2022/12/24 10:37:53;;;;;;;;;;;10.10;99.90;;;;;;5063465;28;19991;-67
2022/12/24 10:40:25;;;;;;;;;;;10.10;99.90;;;;;;5063229;28;19920;-68
2022/12/24 10:42:52;;;;;;;;;;;10.20;99.90;;;;;;5063965;28;20230;-67
2022/12/24 10:45:22;;;;;;;;;;;10.20;99.90;;;;;;5061769;28;19967;-68
2022/12/24 10:47:50;;;;;;;;;;;10.30;99.90;;;;;;5049310;28;20149;-68
2022/12/24 10:50:22;;;;;;;;;;;10.20;99.90;;;;;;5052107;28;19987;-68
2022/12/24 10:52:51;;;;;;;;;;;10.20;99.90;;;;;;5063856;28;19955;-68
2022/12/24 10:55:22;;;;;;;;;;;10.10;99.90;;;;;;5056844;28;19921;-68
2022/12/24 10:57:56;;;;;;;;;;;10.10;99.90;;;;;;5047044;28;19929;-70
2022/12/24 11:00:24;;;;;;;;;;;10.20;99.90;;;;;;5059983;28;19988;-67
2022/12/24 11:03:05;;;;;;;;;;;10.30;99.90;;;;;;5043364;28;19988;-68
2022/12/24 11:05:33;;;;;;;;;;;10.30;99.90;;;;;;5043042;28;19963;-68
2022/12/24 11:08:00;;;;;;;;;;;10.50;99.90;;;;;;5043133;28;20157;-67
2022/12/24 11:10:27;;;;;;;;;;;10.60;99.90;;;;;;5043160;28;19921;-69
2022/12/24 11:12:53;;;;;;;;;;;10.80;99.90;;;;;;5043437;28;19980;-67
2022/12/24 11:15:23;;;;;;;;;;;10.90;99.90;;;;;;5044680;28;20057;-69
2022/12/24 11:17:54;;;;;;;;;;;11.10;99.90;;;;;;5061790;28;20213;-67
2022/12/24 11:20:23;;;;;;;;;;;11.00;99.90;;;;;;5062060;28;19952;-68
2022/12/24 11:22:50;;;;;;;;;;;11.00;99.90;;;;;;5063147;28;19920;-69
2022/12/24 11:25:20;;;;;;;;;;;11.10;99.90;;;;;;5062322;28;19959;-69
2022/12/24 11:27:50;;;;;;;;;;;11.20;99.90;;;;;;5063230;28;19944;-68
2022/12/24 11:30:32;;;;;;;;;;;11.10;99.90;;;;;;5063443;28;19921;-68
2022/12/24 11:33:17;;;;;;;;;;;11.00;99.90;;;;;;5060918;28;20124;-68
2022/12/24 11:35:47;;;;;;;;;;;10.90;99.90;;;;;;5059762;28;19947;-68
2022/12/24 11:38:18;;;;;;;;;;;10.90;99.90;;;;;;5062680;28;20083;-68
2022/12/24 11:40:46;;;;;;;;;;;11.10;99.90;;;;;;5063397;28;19992;-68
2022/12/24 11:43:15;;;;;;;;;;;11.10;99.90;;;;;;5063032;28;19991;-68
2022/12/24 11:45:47;;;;;;;;;;;11.10;99.90;;;;;;5062514;28;19920;-68
2022/12/24 11:48:24;;;;;;;;;;;11.00;99.90;;;;;;5061249;28;20199;-68
2022/12/24 11:50:55;;;;;;;;;;;11.00;99.90;;;;;;5059575;28;19938;-67
2022/12/24 11:53:25;;;;;;;;;;;10.90;99.90;;;;;;5061542;28;20048;-68
2022/12/24 11:55:54;;;;;;;;;;;10.80;99.90;;;;;;5058027;28;19920;-68
2022/12/24 11:58:24;;;;;;;;;;;10.80;99.90;;;;;;5065614;28;19984;-68
2022/12/24 12:00:51;;;;;;;;;;;10.70;99.90;;;;;;5066011;28;19925;-68
2022/12/24 12:03:26;;;;;;;;;;;10.60;99.90;;;;;;5065811;28;20004;-68
2022/12/24 12:05:55;;;;;;;;;;;10.60;99.90;;;;;;5065335;28;19987;-70
2022/12/24 12:08:22;;;;;;;;;;;10.60;99.90;;;;;;5065224;28;19927;-74
2022/12/24 12:10:50;;;;;;;;;;;10.60;99.90;;;;;;5065498;28;19920;-71
2022/12/24 12:13:19;;;;;;;;;;;10.70;99.90;;;;;;5065858;28;19943;-70
2022/12/24 12:15:48;;;;;;;;;;;10.70;99.90;;;;;;5065453;28;19976;-71
2022/12/24 12:18:15;;;;;;;;;;;10.80;99.90;;;;;;5066267;28;19988;-73
2022/12/24 12:20:43;;;;;;;;;;;10.90;99.90;;;;;;5065684;28;19988;-69
2022/12/24 12:23:13;;;;;;;;;;;10.90;99.90;;;;;;5065808;28;19983;-70
2022/12/24 12:25:44;;;;;;;;;;;11.00;99.90;;;;;;5064198;28;19983;-70
2022/12/24 12:28:15;;;;;;;;;;;11.00;99.90;;;;;;5060042;28;19984;-69
2022/12/24 12:30:43;;;;;;;;;;;11.00;99.90;;;;;;5057607;28;19935;-70
2022/12/24 12:33:19;;;;;;;;;;;11.10;99.90;;;;;;5064378;28;19927;-69
2022/12/24 12:35:47;;;;;;;;;;;11.10;99.90;;;;;;5046055;28;19932;-69
2022/12/24 12:38:19;;;;;;;;;;;11.00;99.90;;;;;;5049128;28;19933;-69
2022/12/24 12:40:57;;;;;;;;;;;10.90;99.90;;;;;;5066045;28;20108;-70
2022/12/24 12:43:32;;;;;;;;;;;10.80;99.90;;;;;;5059160;28;19921;-69
2022/12/24 12:46:02;;;;;;;;;;;10.80;99.90;;;;;;5064491;28;19988;-69
2022/12/24 12:48:42;;;;;;;;;;;10.90;99.90;;;;;;5063873;28;19952;-69
2022/12/24 12:51:10;;;;;;;;;;;11.00;99.90;;;;;;5064112;28;19927;-69
2022/12/24 12:53:43;;;;;;;;;;;11.10;99.90;;;;;;5065363;28;20223;-70
2022/12/24 12:56:14;;;;;;;;;;;11.20;99.90;;;;;;5064971;28;19921;-69
2022/12/24 12:58:43;;;;;;;;;;;11.20;99.90;;;;;;5065039;28;19920;-69
2022/12/24 13:01:14;;;;;;;;;;;11.10;99.90;;;;;;5063314;28;19967;-69
2022/12/24 13:04:08;;;;;;;;;;;11.10;99.90;;;;;;5052210;28;19921;-69
2022/12/24 13:06:52;;;;;;;;;;;11.20;99.90;;;;;;5029049;28;19984;-69
2022/12/24 13:09:28;;;;;;;;;;;11.20;99.90;;;;;;5060473;28;19956;-69
2022/12/24 13:12:05;;;;;;;;;;;11.20;99.90;;;;;;5056450;28;19948;-68
2022/12/24 13:14:38;;;;;;;;;;;11.20;99.90;;;;;;5045749;28;19943;-69
2022/12/24 13:17:20;;;;;;;;;;;11.10;99.90;;;;;;5045623;28;19988;-69
2022/12/24 13:19:59;;;;;;;;;;;11.20;99.90;;;;;;5012880;28;19997;-69
2022/12/24 13:22:25;;;;;;;;;;;11.10;99.90;;;;;;5056475;28;19921;-69
2022/12/24 13:24:54;;;;;;;;;;;11.00;99.90;;;;;;5058436;28;20281;-69
2022/12/24 13:27:23;;;;;;;;;;;10.90;99.90;;;;;;5065066;28;19921;-69
2022/12/24 13:29:55;;;;;;;;;;;10.80;99.90;;;;;;5065152;28;19955;-71
2022/12/24 13:32:40;;;;;;;;;;;10.80;99.90;;;;;;5065134;28;20294;-71
2022/12/24 13:35:25;;;;;;;;;;;10.70;99.90;;;;;;5065156;28;20098;-71
2022/12/24 13:37:52;;;;;;;;;;;10.60;99.90;;;;;;5054839;28;19987;-71
2022/12/24 13:40:24;;;;;;;;;;;10.60;99.90;;;;;;5064303;28;19956;-71
2022/12/24 13:42:51;;;;;;;;;;;10.50;99.90;;;;;;5064831;28;19988;-70
2022/12/24 13:45:36;;;;;;;;;;;10.50;99.90;;;;;;5064810;28;19927;-71
2022/12/24 13:48:14;;;;;;;;;;;10.50;99.90;;;;;;5064373;28;19948;-73
2022/12/24 13:50:44;;;;;;;;;;;10.50;99.90;;;;;;5062083;28;19992;-71
2022/12/24 13:53:20;;;;;;;;;;;10.40;99.90;;;;;;5044958;28;19988;-70
2022/12/24 13:55:51;;;;;;;;;;;10.40;99.90;;;;;;5061367;28;19988;-71
2022/12/24 13:58:19;;;;;;;;;;;10.30;99.90;;;;;;5064468;28;20153;-71
2022/12/24 14:00:52;;;;;;;;;;;10.30;99.90;;;;;;5064593;28;19959;-71
2022/12/24 14:03:24;;;;;;;;;;;10.30;99.90;;;;;;5064419;28;20000;-71
2022/12/24 14:05:53;;;;;;;;;;;10.30;99.90;;;;;;5064249;28;20275;-72
2022/12/24 14:08:27;;;;;;;;;;;10.20;99.90;;;;;;5064022;28;19992;-70
2022/12/24 14:11:02;;;;;;;;;;;10.20;99.90;;;;;;5064175;28;19992;-71
2022/12/24 14:13:47;;;;;;;;;;;10.10;99.90;;;;;;5064378;28;20267;-70
2022/12/24 14:16:15;;;;;;;;;;;10.10;99.90;;;;;;5062805;28;19952;-70
2022/12/24 14:18:42;;;;;;;;;;;10.10;99.90;;;;;;5044372;28;19984;-71
2022/12/24 14:21:15;;;;;;;;;;;10.10;99.90;;;;;;5044130;28;19927;-71
2022/12/24 14:23:53;;;;;;;;;;;10.10;99.90;;;;;;5051815;28;20256;-71
2022/12/24 14:26:24;;;;;;;;;;;10.00;99.90;;;;;;5063463;28;20127;-73
2022/12/24 14:28:54;;;;;;;;;;;10.00;99.90;;;;;;5064272;28;19984;-69
2022/12/24 14:31:21;;;;;;;;;;;10.00;99.90;;;;;;5062926;28;19924;-68
2022/12/24 14:33:48;;;;;;;;;;;9.90;99.90;;;;;;5057859;28;20068;-70
2022/12/24 14:36:15;;;;;;;;;;;9.90;99.90;;;;;;5062388;28;19952;-69
2022/12/24 14:38:43;;;;;;;;;;;9.90;99.90;;;;;;5062068;28;19920;-71
2022/12/24 14:41:17;;;;;;;;;;;9.80;99.90;;;;;;5064001;28;19987;-70
2022/12/24 14:43:50;;;;;;;;;;;9.80;99.90;;;;;;5062363;28;19921;-70
2022/12/24 14:46:19;;;;;;;;;;;9.80;99.90;;;;;;5063544;28;19921;-70